Thunder radar more information blitzortung!


Löydät sääaseman tiedot myös:

European Weather Network

Finland Weather Exchange

Weather Underground

AWEKAS



Weather Underground säähistoriasivu

Päivittäin yhteenveto Tou 14, 2017 Yksiköt:  Englantilaiset    Metriset   Molemmat
« Edellinen Päivä
Seuraava Päivä »
Päivittäin Viikoittain Kuukausittain Vuosittain Mukautettu
  Korkea: Matala: Keskiarvo:
Lämpötila: TemperatureC °F -2.3 °F 5.7 °F
Kastepiste: DewpointC °F -6.2 °F -2 °F
Kosteus: Humidity % 35 % 60 %
Tuulen nopeus: WindSpeedKMH mph 0.0 mph 3.1 mph
Tuulenpuuska: WindSpeedGustKMH mph - -
Tuuli:- - SW
Ilmanpaine: PressurehPa in 1018.2 in -
Sade: 0.0 in    
Historical Graphs
 
 
Taulukkotiedot Tou 14, 2017
Aika Lämpötila Kastepiste Ilmanpaine Tuuli Tuulen nopeus Tuulenpuuska Kosteus Sademäärä (tunneittain)
TemperatureC °F DewpointC °F PressurehPa in Calm     Humidity % HourlyPrecipMM in
00:00 1.4 °F -5.5 °F 1019.2 in Calm     60 % 0.0 in
00:15 0.9 °F -5.8 °F 1019.2 in Calm     61 % 0.0 in
00:30 0.4 °F -5.8 °F 1019.2 in Calm     63 % 0.0 in
00:45 0.0 °F -6.0 °F 1019.5 in Calm     64 % 0.0 in
01:00 -0.4 °F -6.2 °F 1019.5 in Calm     65 % 0.0 in
01:15 -0.7 °F -6.0 °F 1019.2 in Calm     67 % 0.0 in
01:30 -0.9 °F -5.9 °F 1019.2 in Calm     69 % 0.0 in
01:45 -1.1 °F -5.5 °F 1019.2 in Calm     72 % 0.0 in
02:00 -1.3 °F -5.6 °F 1019.5 in Calm     73 % 0.0 in
02:15 -1.5 °F -5.5 °F 1019.5 in Calm     74 % 0.0 in
02:30 -1.7 °F -5.5 °F 1019.5 in Calm     75 % 0.0 in
02:45 -1.8 °F -5.5 °F 1019.5 in Calm     76 % 0.0 in
03:00 -1.9 °F -5.4 °F 1019.5 in Calm     77 % 0.0 in
03:30 -2.2 °F -5.4 °F 1019.5 in Calm     79 % 0.0 in
03:45 -2.3 °F -5.3 °F 1019.5 in Calm     80 % 0.0 in
04:00 -2.0 °F -5.0 °F 1019.5 in Calm   3.2 mph 80 % 0.0 in
04:15 -1.9 °F -4.8 °F 1019.5 in Calm     81 % 0.0 in
04:30 -2.1 °F -5.1 °F 1019.5 in Calm     80 % 0.0 in
04:45 -2.1 °F -5.0 °F 1019.5 in Calm     80 % 0.0 in
05:00 -2.1 °F -4.9 °F 1019.5 in Calm     81 % 0.0 in
05:15 -2.1 °F -5.1 °F 1019.5 in Calm     80 % 0.0 in
05:30 -2.2 °F -5.0 °F 1019.5 in Calm     81 % 0.0 in
05:45 -2.0 °F -4.7 °F 1019.5 in Calm     82 % 0.0 in
06:00 -1.8 °F -4.3 °F 1019.5 in Calm     83 % 0.0 in
06:15 -1.5 °F -4.2 °F 1019.5 in Calm     82 % 0.0 in
06:30 -0.9 °F -4.0 °F 1019.2 in Calm   1.6 mph 80 % 0.0 in
06:45 0.1 °F -3.9 °F 1019.2 in SSW 3.2 mph 6.4 mph 75 % 0.0 in
07:00 0.9 °F -4.0 °F 1018.8 in SSW 1.6 mph 6.4 mph 70 % 0.0 in
07:15 1.7 °F -3.6 °F 1018.8 in SSW 1.6 mph 6.4 mph 68 % 0.0 in
07:30 2.9 °F -3.4 °F 1019.2 in Calm   6.4 mph 63 % 0.0 in
07:45 3.9 °F -3.4 °F 1018.8 in SSW 4.8 mph 9.7 mph 59 % 0.0 in
08:00 4.4 °F -3.4 °F 1018.8 in SSW 3.2 mph 6.4 mph 57 % 0.0 in
08:15 4.8 °F -3.5 °F 1018.8 in SSW 3.2 mph 9.7 mph 55 % 0.0 in
08:30 5.0 °F -3.3 °F 1018.8 in SSW 3.2 mph 14.5 mph 55 % 0.0 in
08:45 5.5 °F -3.1 °F 1018.5 in SSW 4.8 mph 11.3 mph 54 % 0.0 in
09:00 6.4 °F -2.8 °F 1018.5 in South 4.8 mph 12.9 mph 52 % 0.0 in
09:15 6.9 °F -3.1 °F 1018.2 in SSW 3.2 mph 11.3 mph 49 % 0.0 in
09:30 7.7 °F -3.5 °F 1018.2 in SSW 3.2 mph 11.3 mph 45 % 0.0 in
09:45 8.6 °F -4.3 °F 1018.2 in SSW 6.4 mph 17.7 mph 40 % 0.0 in
10:00 9.0 °F -4.9 °F 1018.2 in South 6.4 mph 14.5 mph 37 % 0.0 in
10:15 9.3 °F -5.0 °F 1018.2 in SSW 8.0 mph 19.3 mph 36 % 0.0 in
10:30 9.6 °F -5.2 °F 1018.2 in SSW 11.3 mph 20.9 mph 35 % 0.0 in
10:45 9.7 °F -5.0 °F 1018.2 in SSW 8.0 mph 17.7 mph 35 % 0.0 in
11:00 9.8 °F -5.0 °F 1018.2 in SSW 8.0 mph 19.3 mph 35 % 0.0 in
11:15 9.8 °F -4.9 °F 1018.2 in SSW 6.4 mph 20.9 mph 35 % 0.0 in
11:30 9.8 °F -4.6 °F 1018.2 in SSW 9.7 mph 17.7 mph 36 % 0.0 in
11:45 9.8 °F -4.6 °F 1018.2 in SSW 4.8 mph 12.9 mph 36 % 0.0 in
12:00 10.1 °F -4.3 °F 1018.5 in SSW 4.8 mph 14.5 mph 36 % 0.0 in
12:15 10.6 °F -3.5 °F 1018.2 in SSW 8.0 mph 17.7 mph 37 % 0.0 in
12:30 11.8 °F -2.4 °F 1018.2 in SSW 6.4 mph 16.1 mph 37 % 0.0 in
12:45 12.6 °F -2.1 °F 1018.2 in SSW 8.0 mph 19.3 mph 36 % 0.0 in
13:00 12.7 °F -2.0 °F 1018.2 in SSW 8.0 mph 19.3 mph 36 % 0.0 in
13:15 12.5 °F -1.5 °F 1018.2 in SSW 8.0 mph 25.7 mph 38 % 0.0 in
13:30 12.5 °F -1.5 °F 1018.2 in SW 4.8 mph 17.7 mph 38 % 0.0 in
13:45 12.4 °F -1.6 °F 1018.2 in SW 6.4 mph 16.1 mph 38 % 0.0 in
14:00 12.5 °F -1.1 °F 1018.2 in SSW 6.4 mph 14.5 mph 39 % 0.0 in
14:15 13.2 °F -0.9 °F 1018.5 in SSW 8.0 mph 17.7 mph 38 % 0.0 in
14:30 13.0 °F -0.6 °F 1018.5 in SW 6.4 mph 20.9 mph 39 % 0.0 in
14:45 12.9 °F -0.7 °F 1018.5 in WSW 6.4 mph 24.1 mph 39 % 0.0 in
15:00 12.7 °F -0.9 °F 1018.5 in SSW 8.0 mph 17.7 mph 39 % 0.0 in
15:15 12.7 °F -0.6 °F 1018.5 in West 4.8 mph 19.3 mph 40 % 0.0 in
15:30 12.3 °F -0.9 °F 1018.5 in SW 8.0 mph 19.3 mph 40 % 0.0 in
15:45 12.3 °F -0.6 °F 1018.5 in SSW 8.0 mph 16.1 mph 41 % 0.0 in
16:00 12.4 °F -0.8 °F 1018.5 in SSW 6.4 mph 19.3 mph 40 % 0.0 in
16:30 12.8 °F 0.2 °F 1018.5 in SSW 6.4 mph 14.5 mph 42 % 0.0 in
16:45 12.7 °F 0.4 °F 1018.5 in SW 8.0 mph 19.3 mph 43 % 0.0 in
17:00 13.2 °F 1.2 °F 1018.5 in SSW 3.2 mph 11.3 mph 44 % 0.0 in
17:15 13.3 °F 1.9 °F 1018.5 in NW 4.8 mph 17.7 mph 46 % 0.0 in
17:30 13.1 °F 2.3 °F 1018.2 in NW 4.8 mph 11.3 mph 48 % 0.0 in
17:45 12.8 °F 2.6 °F 1018.5 in NW 6.4 mph 12.9 mph 50 % 0.0 in
18:00 12.3 °F 2.5 °F 1018.5 in NW 6.4 mph 19.3 mph 51 % 0.0 in
18:15 11.8 °F 3.8 °F 1018.5 in NW 4.8 mph 11.3 mph 58 % 0.0 in
18:30 10.8 °F 4.3 °F 1018.8 in NW 4.8 mph 11.3 mph 64 % 0.0 in
18:45 10.0 °F 4.1 °F 1018.8 in NNW 4.8 mph 9.7 mph 67 % 0.0 in
19:00 9.3 °F 3.7 °F 1018.8 in NNW 3.2 mph 11.3 mph 68 % 0.0 in
19:15 8.9 °F 3.6 °F 1018.8 in NW 1.6 mph 8.0 mph 69 % 0.0 in
19:30 8.7 °F 3.7 °F 1018.8 in North 1.6 mph 4.8 mph 71 % 0.0 in
19:45 8.3 °F 3.3 °F 1019.2 in Calm   6.4 mph 71 % 0.0 in
20:15 7.3 °F 1.8 °F 1019.2 in Calm   4.8 mph 68 % 0.0 in
20:30 6.8 °F 1.7 °F 1019.2 in North 1.6 mph 6.4 mph 70 % 0.0 in
20:45 6.5 °F 2.0 °F 1019.2 in Calm   3.2 mph 73 % 0.0 in
21:00 6.1 °F 2.0 °F 1019.2 in NNW 1.6 mph 6.4 mph 75 % 0.0 in
21:15 5.7 °F 1.8 °F 1019.5 in NW 1.6 mph 11.3 mph 76 % 0.0 in
21:30 5.3 °F 1.6 °F 1019.5 in Calm   6.4 mph 77 % 0.0 in
21:45 4.8 °F 1.6 °F 1019.5 in North 1.6 mph 4.8 mph 80 % 0.0 in
22:00 4.4 °F 1.4 °F 1019.9 in Calm   4.8 mph 81 % 0.0 in
22:15 3.9 °F 1.3 °F 1019.9 in Calm   3.2 mph 83 % 0.0 in
22:30 3.6 °F 1.2 °F 1019.9 in Calm   6.4 mph 84 % 0.0 in
22:45 3.2 °F 0.9 °F 1019.9 in NNW 1.6 mph 11.3 mph 85 % 0.0 in
23:00 2.9 °F 0.8 °F 1020.2 in Calm   3.2 mph 86 % 0.0 in
23:15 2.6 °F 0.7 °F 1020.2 in Calm   4.8 mph 87 % 0.0 in
23:30 2.3 °F 0.5 °F 1020.5 in Calm   3.2 mph 88 % 0.0 in
23:45 2.2 °F 0.4 °F 1020.5 in Calm   1.6 mph 88 % 0.0 in
Esan sääasema
Terveisin Weather Underground - 2.75 mb

Alkuperäinen skripti  Jim McMurry - jmcmurry@mwt.net Sovitettu myös templatelle  Wim van der Kuil - Leuven-Template.eu

Laitteet joita käytämme:

Sääasema
Davis VP2

Sääasemaohjelma
Cumulus

Sääaseman tietokone
Asus EeePC

Palveluntarjoaja
Suncomet

Davis VP2

Cumulus

Asus EeePC

Suncomet